• Join FlightAware (Why Join?)
  • Login
  • US Flag 
06:40AM EDT


 

Airport Tracker/Info


-or-


 

Live Flight TrackerFlight Track Log ✈ N9AP ✈ 30-Apr-2012 ✈ KBKL - KOLE

Flight Track Log - Related Links

Times and Time Zones

All times are in EDT time to prevent confusion due to time zone crossing. See the N9AP flight status page for this flight to view local times or setup timezone preferences in your user account.

Time Position Orientation Groundspeed Altitude Reporting Facility
EDT Latitude Longitude Course Direction KTS MPH feet Rate Location/Type
01:25PM 41.5256 -81.6647 346° North 96 110 1,200  Level Cleveland Center
01:27PM 41.5878 -81.6853 North 136 157 2,000 420 Climbing Cleveland Center
01:28PM 41.6233 -81.6803 52° Northeast 152 175 2,400 420 Climbing Cleveland Center
01:29PM 41.6444 -81.6447 73° East 139 160 2,900 420 Climbing Cleveland Center
01:30PM 41.6553 -81.5975 73° East 154 177 3,300 600 Climbing Cleveland Center
01:31PM 41.6661 -81.5506 71° East 132 152 4,200 840 Climbing Cleveland Center
01:32PM 41.6792 -81.5006 76° East 128 147 5,100 780 Climbing Cleveland Center
01:33PM 41.6878 -81.4533 67° East 131 151 5,800 660 Climbing Cleveland Center
01:34PM 41.7028 -81.4064 70° East 134 154 6,500 540 Climbing Cleveland Center
01:35PM 41.7156 -81.3592 71° East 135 155 7,000 240 Climbing Cleveland Center
01:36PM 41.7325 -81.2928 78° East 173 199 7,100  Climbing Cleveland Center
01:37PM 41.7433 -81.2261 78° East 185 213 7,100 -60 Level Cleveland Center
02:02PM 42.0111 -79.5044 78° East 176 203 6,900 -60 Descending Cleveland Center
02:03PM 42.0211 -79.4400 79° East 176 203 6,900  Level Cleveland Center
02:04PM 42.0308 -79.3700 81° East 176 203 6,900  Level Cleveland Center
02:05PM 42.0383 -79.3056 74° East 176 203 6,900  Level Cleveland Center
02:06PM 42.0503 -79.2494 81° East 257 296 7,000  Climbing Cleveland Center
02:07PM 42.0597 -79.1681 76° East 197 227 7,000  Level Cleveland Center
02:08PM 42.0714 -79.1064 81° East 175 201 7,000  Level Cleveland Center
02:09PM 42.0789 -79.0444 79° East 167 192 7,000  Level Cleveland Center
02:10PM 42.0883 -78.9772 80° East 167 192 7,000  Level Cleveland Center
02:11PM 42.0978 -78.9042 80° East 188 216 7,000 -360 Level Cleveland Center
02:12PM 42.1072 -78.8311 81° East 188 216 6,300 -660 Descending Cleveland Center
02:13PM 42.1164 -78.7553 78° East 199 229 5,700 -600 Descending Cleveland Center
02:14PM 42.1278 -78.6822 78° East 199 229 5,200 -600 Descending Cleveland Center
02:15PM 42.1392 -78.6119 76° East 199 229 4,500 -540 Descending Cleveland Center
02:16PM 42.1506 -78.5497 70° East 199 229 4,200 -300 Descending Cleveland Center
02:17PM 42.1661 -78.4906 69° East 178 205 3,900 -360 Descending Cleveland Center
02:18PM 42.1817 -78.4367 48° Northeast 156 180 3,500 -420 Descending Cleveland Center
02:19PM 42.2103 -78.3936 48° Northeast 150 173 3,100 -420 Descending Cleveland Center